sensor_id;sensor_type;location;lat;lon;timestamp;temperature;humidity
23475;DHT22;11910;52.086;21.066;2023-03-14T00:00:55;9.20;99.90
23475;DHT22;11910;52.086;21.066;2023-03-14T00:03:21;9.10;99.90
23475;DHT22;11910;52.086;21.066;2023-03-14T00:05:47;9.10;99.90
23475;DHT22;11910;52.086;21.066;2023-03-14T00:08:12;9.10;99.90
23475;DHT22;11910;52.086;21.066;2023-03-14T00:10:38;9.00;99.90
23475;DHT22;11910;52.086;21.066;2023-03-14T00:13:04;9.00;99.90
23475;DHT22;11910;52.086;21.066;2023-03-14T00:15:32;9.00;99.90
23475;DHT22;11910;52.086;21.066;2023-03-14T00:17:58;9.00;99.90
23475;DHT22;11910;52.086;21.066;2023-03-14T00:20:24;8.90;99.90
23475;DHT22;11910;52.086;21.066;2023-03-14T00:22:49;9.00;99.90
23475;DHT22;11910;52.086;21.066;2023-03-14T00:25:15;9.00;99.90
23475;DHT22;11910;52.086;21.066;2023-03-14T00:27:41;9.00;99.90
23475;DHT22;11910;52.086;21.066;2023-03-14T00:30:07;9.00;99.90
23475;DHT22;11910;52.086;21.066;2023-03-14T00:32:33;8.90;99.90
23475;DHT22;11910;52.086;21.066;2023-03-14T00:34:59;8.90;99.90
23475;DHT22;11910;52.086;21.066;2023-03-14T00:37:26;8.90;99.90
23475;DHT22;11910;52.086;21.066;2023-03-14T00:39:52;8.90;99.90
23475;DHT22;11910;52.086;21.066;2023-03-14T00:42:17;8.80;99.90
23475;DHT22;11910;52.086;21.066;2023-03-14T00:44:43;8.90;99.90
23475;DHT22;11910;52.086;21.066;2023-03-14T00:47:08;8.80;99.90
23475;DHT22;11910;52.086;21.066;2023-03-14T00:49:34;8.80;99.90
23475;DHT22;11910;52.086;21.066;2023-03-14T00:52:00;8.80;99.90
23475;DHT22;11910;52.086;21.066;2023-03-14T00:54:25;8.80;99.80
23475;DHT22;11910;52.086;21.066;2023-03-14T00:56:51;8.80;99.80
23475;DHT22;11910;52.086;21.066;2023-03-14T00:59:16;8.70;99.70
23475;DHT22;11910;52.086;21.066;2023-03-14T01:01:43;8.70;99.70
23475;DHT22;11910;52.086;21.066;2023-03-14T01:04:08;8.80;99.70
23475;DHT22;11910;52.086;21.066;2023-03-14T01:06:34;8.80;99.40
23475;DHT22;11910;52.086;21.066;2023-03-14T01:09:00;8.80;99.40
23475;DHT22;11910;52.086;21.066;2023-03-14T01:11:28;8.80;99.30
23475;DHT22;11910;52.086;21.066;2023-03-14T01:13:54;8.70;99.20
23475;DHT22;11910;52.086;21.066;2023-03-14T01:16:22;8.70;98.90
23475;DHT22;11910;52.086;21.066;2023-03-14T01:18:48;8.70;98.80
23475;DHT22;11910;52.086;21.066;2023-03-14T01:21:14;8.80;98.80
23475;DHT22;11910;52.086;21.066;2023-03-14T01:23:42;8.80;98.70
23475;DHT22;11910;52.086;21.066;2023-03-14T01:26:12;8.80;98.60
23475;DHT22;11910;52.086;21.066;2023-03-14T01:28:39;8.80;98.60
23475;DHT22;11910;52.086;21.066;2023-03-14T01:31:06;8.80;98.40
23475;DHT22;11910;52.086;21.066;2023-03-14T01:33:32;8.80;98.50
23475;DHT22;11910;52.086;21.066;2023-03-14T01:35:58;8.80;98.30
23475;DHT22;11910;52.086;21.066;2023-03-14T01:38:24;8.70;98.40
23475;DHT22;11910;52.086;21.066;2023-03-14T01:40:49;8.70;98.40
23475;DHT22;11910;52.086;21.066;2023-03-14T01:43:20;8.70;98.30
23475;DHT22;11910;52.086;21.066;2023-03-14T01:48:40;8.70;98.20
23475;DHT22;11910;52.086;21.066;2023-03-14T01:51:16;8.60;98.20
23475;DHT22;11910;52.086;21.066;2023-03-14T01:53:42;8.60;98.20
23475;DHT22;11910;52.086;21.066;2023-03-14T01:56:11;8.60;98.20
23475;DHT22;11910;52.086;21.066;2023-03-14T01:58:39;8.60;98.00
23475;DHT22;11910;52.086;21.066;2023-03-14T02:01:07;8.60;98.00
23475;DHT22;11910;52.086;21.066;2023-03-14T02:03:37;8.60;98.10
23475;DHT22;11910;52.086;21.066;2023-03-14T02:06:06;8.50;97.90
23475;DHT22;11910;52.086;21.066;2023-03-14T02:08:33;8.50;97.90
23475;DHT22;11910;52.086;21.066;2023-03-14T02:11:00;8.50;97.90
23475;DHT22;11910;52.086;21.066;2023-03-14T02:13:26;8.40;97.90
23475;DHT22;11910;52.086;21.066;2023-03-14T02:15:52;8.40;97.90
23475;DHT22;11910;52.086;21.066;2023-03-14T02:18:18;8.40;97.90
23475;DHT22;11910;52.086;21.066;2023-03-14T02:21:01;8.40;98.00
23475;DHT22;11910;52.086;21.066;2023-03-14T02:29:33;8.20;97.90
23475;DHT22;11910;52.086;21.066;2023-03-14T02:32:01;8.20;97.90
23475;DHT22;11910;52.086;21.066;2023-03-14T02:34:27;8.20;97.90
23475;DHT22;11910;52.086;21.066;2023-03-14T02:36:54;8.10;97.80
23475;DHT22;11910;52.086;21.066;2023-03-14T02:39:39;8.20;97.80
23475;DHT22;11910;52.086;21.066;2023-03-14T02:42:05;8.10;97.70
23475;DHT22;11910;52.086;21.066;2023-03-14T02:44:31;8.20;97.70
23475;DHT22;11910;52.086;21.066;2023-03-14T02:46:57;8.20;97.60
23475;DHT22;11910;52.086;21.066;2023-03-14T02:49:22;8.20;97.60
23475;DHT22;11910;52.086;21.066;2023-03-14T02:51:48;8.20;97.50
23475;DHT22;11910;52.086;21.066;2023-03-14T02:54:15;8.20;97.40
23475;DHT22;11910;52.086;21.066;2023-03-14T02:56:41;8.20;97.40
23475;DHT22;11910;52.086;21.066;2023-03-14T02:59:06;8.20;97.40
23475;DHT22;11910;52.086;21.066;2023-03-14T03:01:33;8.20;97.50
23475;DHT22;11910;52.086;21.066;2023-03-14T03:03:59;8.10;97.40
23475;DHT22;11910;52.086;21.066;2023-03-14T03:06:25;8.10;97.50
23475;DHT22;11910;52.086;21.066;2023-03-14T03:08:50;8.10;97.60
23475;DHT22;11910;52.086;21.066;2023-03-14T03:11:16;8.00;97.70
23475;DHT22;11910;52.086;21.066;2023-03-14T03:13:42;7.90;97.70
23475;DHT22;11910;52.086;21.066;2023-03-14T03:16:08;7.90;97.80
23475;DHT22;11910;52.086;21.066;2023-03-14T03:18:33;7.80;97.70
23475;DHT22;11910;52.086;21.066;2023-03-14T03:21:00;7.80;97.80
23475;DHT22;11910;52.086;21.066;2023-03-14T03:23:26;7.80;97.80
23475;DHT22;11910;52.086;21.066;2023-03-14T03:25:52;7.80;97.80
23475;DHT22;11910;52.086;21.066;2023-03-14T03:28:18;7.80;97.90
23475;DHT22;11910;52.086;21.066;2023-03-14T03:30:44;7.80;97.70
23475;DHT22;11910;52.086;21.066;2023-03-14T03:33:11;7.80;97.70
23475;DHT22;11910;52.086;21.066;2023-03-14T03:35:48;7.80;97.70
23475;DHT22;11910;52.086;21.066;2023-03-14T03:38:14;7.80;97.60
23475;DHT22;11910;52.086;21.066;2023-03-14T03:40:40;7.80;97.70
23475;DHT22;11910;52.086;21.066;2023-03-14T03:43:06;7.70;97.70
23475;DHT22;11910;52.086;21.066;2023-03-14T03:45:31;7.70;97.70
23475;DHT22;11910;52.086;21.066;2023-03-14T03:47:57;7.70;97.60
23475;DHT22;11910;52.086;21.066;2023-03-14T03:50:22;7.70;97.70
23475;DHT22;11910;52.086;21.066;2023-03-14T03:52:48;7.70;97.60
23475;DHT22;11910;52.086;21.066;2023-03-14T03:55:14;7.80;97.60
23475;DHT22;11910;52.086;21.066;2023-03-14T03:57:39;7.80;97.60
23475;DHT22;11910;52.086;21.066;2023-03-14T04:00:06;7.80;97.50
23475;DHT22;11910;52.086;21.066;2023-03-14T04:02:34;7.70;97.50
23475;DHT22;11910;52.086;21.066;2023-03-14T04:04:59;7.80;97.50
23475;DHT22;11910;52.086;21.066;2023-03-14T04:07:25;7.70;97.50
23475;DHT22;11910;52.086;21.066;2023-03-14T04:09:51;7.70;97.60
23475;DHT22;11910;52.086;21.066;2023-03-14T04:12:16;7.60;97.50
23475;DHT22;11910;52.086;21.066;2023-03-14T04:14:42;7.60;97.60
23475;DHT22;11910;52.086;21.066;2023-03-14T04:17:07;7.60;97.70
23475;DHT22;11910;52.086;21.066;2023-03-14T04:19:33;7.50;97.50
23475;DHT22;11910;52.086;21.066;2023-03-14T04:21:59;7.50;97.50
23475;DHT22;11910;52.086;21.066;2023-03-14T04:24:24;7.50;97.60
23475;DHT22;11910;52.086;21.066;2023-03-14T04:26:50;7.50;97.60
23475;DHT22;11910;52.086;21.066;2023-03-14T04:29:15;7.40;97.60
23475;DHT22;11910;52.086;21.066;2023-03-14T04:31:41;7.40;98.00
23475;DHT22;11910;52.086;21.066;2023-03-14T04:34:07;7.40;97.60
23475;DHT22;11910;52.086;21.066;2023-03-14T04:36:32;7.40;97.70
23475;DHT22;11910;52.086;21.066;2023-03-14T04:38:58;7.40;97.70
23475;DHT22;11910;52.086;21.066;2023-03-14T04:41:24;7.30;97.60
23475;DHT22;11910;52.086;21.066;2023-03-14T04:43:49;7.40;97.70
23475;DHT22;11910;52.086;21.066;2023-03-14T04:46:15;7.40;97.70
23475;DHT22;11910;52.086;21.066;2023-03-14T04:48:40;7.40;97.70
23475;DHT22;11910;52.086;21.066;2023-03-14T04:51:06;7.40;97.60
23475;DHT22;11910;52.086;21.066;2023-03-14T04:53:32;7.50;97.50
23475;DHT22;11910;52.086;21.066;2023-03-14T04:55:57;7.50;98.00
23475;DHT22;11910;52.086;21.066;2023-03-14T04:58:23;7.50;97.60
23475;DHT22;11910;52.086;21.066;2023-03-14T05:00:49;7.50;97.50
23475;DHT22;11910;52.086;21.066;2023-03-14T05:03:16;7.50;97.40
23475;DHT22;11910;52.086;21.066;2023-03-14T05:05:42;7.50;97.30
23475;DHT22;11910;52.086;21.066;2023-03-14T05:08:08;7.50;97.40
23475;DHT22;11910;52.086;21.066;2023-03-14T05:10:33;7.60;97.40
23475;DHT22;11910;52.086;21.066;2023-03-14T05:12:59;7.60;97.30
23475;DHT22;11910;52.086;21.066;2023-03-14T05:15:25;7.60;97.30
23475;DHT22;11910;52.086;21.066;2023-03-14T05:17:50;7.60;97.30
23475;DHT22;11910;52.086;21.066;2023-03-14T05:20:16;7.60;97.20
23475;DHT22;11910;52.086;21.066;2023-03-14T05:22:42;7.60;97.20
23475;DHT22;11910;52.086;21.066;2023-03-14T05:25:08;7.60;97.20
23475;DHT22;11910;52.086;21.066;2023-03-14T05:27:34;7.70;97.20
23475;DHT22;11910;52.086;21.066;2023-03-14T05:30:00;7.70;97.00
23475;DHT22;11910;52.086;21.066;2023-03-14T05:32:26;7.70;97.10
23475;DHT22;11910;52.086;21.066;2023-03-14T05:34:51;7.70;97.10
23475;DHT22;11910;52.086;21.066;2023-03-14T05:37:17;7.70;97.10
23475;DHT22;11910;52.086;21.066;2023-03-14T05:39:43;7.70;97.10
23475;DHT22;11910;52.086;21.066;2023-03-14T05:42:08;7.70;97.10
23475;DHT22;11910;52.086;21.066;2023-03-14T05:44:34;7.70;97.00
23475;DHT22;11910;52.086;21.066;2023-03-14T05:46:59;7.70;97.10
23475;DHT22;11910;52.086;21.066;2023-03-14T05:49:25;7.70;97.10
23475;DHT22;11910;52.086;21.066;2023-03-14T05:51:51;7.70;97.00
23475;DHT22;11910;52.086;21.066;2023-03-14T05:54:16;7.70;96.90
23475;DHT22;11910;52.086;21.066;2023-03-14T05:56:43;7.70;96.90
23475;DHT22;11910;52.086;21.066;2023-03-14T05:59:08;7.80;97.00
23475;DHT22;11910;52.086;21.066;2023-03-14T06:01:35;7.80;96.70
23475;DHT22;11910;52.086;21.066;2023-03-14T06:04:00;7.80;96.70
23475;DHT22;11910;52.086;21.066;2023-03-14T06:06:26;7.90;96.90
23475;DHT22;11910;52.086;21.066;2023-03-14T06:08:51;7.90;96.70
23475;DHT22;11910;52.086;21.066;2023-03-14T06:11:17;8.00;96.40
23475;DHT22;11910;52.086;21.066;2023-03-14T06:13:43;8.10;96.60
23475;DHT22;11910;52.086;21.066;2023-03-14T06:16:09;8.30;96.60
23475;DHT22;11910;52.086;21.066;2023-03-14T06:18:34;8.50;95.90
23475;DHT22;11910;52.086;21.066;2023-03-14T06:21:00;8.70;95.90
23475;DHT22;11910;52.086;21.066;2023-03-14T06:23:26;8.80;95.60
23475;DHT22;11910;52.086;21.066;2023-03-14T06:25:52;9.00;95.60
23475;DHT22;11910;52.086;21.066;2023-03-14T06:28:18;9.20;95.00
23475;DHT22;11910;52.086;21.066;2023-03-14T06:30:43;9.30;94.80
23475;DHT22;11910;52.086;21.066;2023-03-14T06:33:15;9.40;94.60
23475;DHT22;11910;52.086;21.066;2023-03-14T06:35:40;9.40;94.50
23475;DHT22;11910;52.086;21.066;2023-03-14T06:38:27;9.50;94.60
23475;DHT22;11910;52.086;21.066;2023-03-14T06:40:55;9.50;94.20
23475;DHT22;11910;52.086;21.066;2023-03-14T06:43:23;9.60;94.50
23475;DHT22;11910;52.086;21.066;2023-03-14T06:45:48;9.70;94.30
23475;DHT22;11910;52.086;21.066;2023-03-14T06:48:14;9.90;93.90
23475;DHT22;11910;52.086;21.066;2023-03-14T06:50:39;9.90;93.60
23475;DHT22;11910;52.086;21.066;2023-03-14T06:53:05;10.00;93.80
23475;DHT22;11910;52.086;21.066;2023-03-14T06:55:31;10.10;93.50
23475;DHT22;11910;52.086;21.066;2023-03-14T06:57:57;10.10;93.70
23475;DHT22;11910;52.086;21.066;2023-03-14T07:00:22;10.30;93.50
23475;DHT22;11910;52.086;21.066;2023-03-14T07:02:48;10.40;93.20
23475;DHT22;11910;52.086;21.066;2023-03-14T07:05:14;10.40;93.00
23475;DHT22;11910;52.086;21.066;2023-03-14T07:07:39;10.50;93.10
23475;DHT22;11910;52.086;21.066;2023-03-14T07:10:05;10.70;92.60
23475;DHT22;11910;52.086;21.066;2023-03-14T07:12:32;11.00;92.70
23475;DHT22;11910;52.086;21.066;2023-03-14T07:14:58;11.20;92.40
23475;DHT22;11910;52.086;21.066;2023-03-14T07:17:23;11.40;91.80
23475;DHT22;11910;52.086;21.066;2023-03-14T07:19:49;11.50;91.60
23475;DHT22;11910;52.086;21.066;2023-03-14T07:22:15;11.60;91.50
23475;DHT22;11910;52.086;21.066;2023-03-14T07:24:40;11.70;91.20
23475;DHT22;11910;52.086;21.066;2023-03-14T07:27:06;11.80;91.60
23475;DHT22;11910;52.086;21.066;2023-03-14T07:29:31;11.90;90.60
23475;DHT22;11910;52.086;21.066;2023-03-14T07:31:57;12.00;90.90
23475;DHT22;11910;52.086;21.066;2023-03-14T07:34:23;12.20;90.90
23475;DHT22;11910;52.086;21.066;2023-03-14T07:36:49;12.50;90.20
23475;DHT22;11910;52.086;21.066;2023-03-14T07:39:14;12.70;89.40
23475;DHT22;11910;52.086;21.066;2023-03-14T07:41:40;13.00;88.90
23475;DHT22;11910;52.086;21.066;2023-03-14T07:44:06;13.30;87.20
23475;DHT22;11910;52.086;21.066;2023-03-14T07:46:32;13.50;87.20
23475;DHT22;11910;52.086;21.066;2023-03-14T07:48:57;13.80;86.80
23475;DHT22;11910;52.086;21.066;2023-03-14T07:51:32;13.90;84.50
23475;DHT22;11910;52.086;21.066;2023-03-14T07:54:00;13.90;84.00
23475;DHT22;11910;52.086;21.066;2023-03-14T07:56:35;14.00;83.50
23475;DHT22;11910;52.086;21.066;2023-03-14T08:01:54;14.20;82.50
23475;DHT22;11910;52.086;21.066;2023-03-14T08:04:25;14.40;82.70
23475;DHT22;11910;52.086;21.066;2023-03-14T08:06:58;14.60;81.90
23475;DHT22;11910;52.086;21.066;2023-03-14T08:09:31;14.70;81.30
23475;DHT22;11910;52.086;21.066;2023-03-14T08:12:08;14.90;81.20
23475;DHT22;11910;52.086;21.066;2023-03-14T08:14:39;14.90;80.20
23475;DHT22;11910;52.086;21.066;2023-03-14T08:23:35;15.20;79.30
23475;DHT22;11910;52.086;21.066;2023-03-14T08:26:10;15.20;80.50
23475;DHT22;11910;52.086;21.066;2023-03-14T08:28:45;15.30;79.20
23475;DHT22;11910;52.086;21.066;2023-03-14T08:31:18;15.40;79.80
23475;DHT22;11910;52.086;21.066;2023-03-14T08:33:46;15.30;79.80
23475;DHT22;11910;52.086;21.066;2023-03-14T08:36:21;15.30;78.80
23475;DHT22;11910;52.086;21.066;2023-03-14T08:39:04;15.30;78.80
23475;DHT22;11910;52.086;21.066;2023-03-14T08:41:33;15.40;78.60
23475;DHT22;11910;52.086;21.066;2023-03-14T08:44:11;15.50;77.80
23475;DHT22;11910;52.086;21.066;2023-03-14T08:46:46;15.60;78.40
23475;DHT22;11910;52.086;21.066;2023-03-14T08:49:32;15.60;76.20
23475;DHT22;11910;52.086;21.066;2023-03-14T08:51:57;15.60;76.60
23475;DHT22;11910;52.086;21.066;2023-03-14T08:54:24;15.70;76.30
23475;DHT22;11910;52.086;21.066;2023-03-14T08:56:49;15.70;77.20
23475;DHT22;11910;52.086;21.066;2023-03-14T08:59:15;15.80;76.60
23475;DHT22;11910;52.086;21.066;2023-03-14T09:01:44;15.80;76.20
23475;DHT22;11910;52.086;21.066;2023-03-14T09:04:09;15.80;75.90
23475;DHT22;11910;52.086;21.066;2023-03-14T09:06:35;15.90;76.40
23475;DHT22;11910;52.086;21.066;2023-03-14T09:09:01;16.20;75.50
23475;DHT22;11910;52.086;21.066;2023-03-14T09:11:27;16.50;76.60
23475;DHT22;11910;52.086;21.066;2023-03-14T09:13:52;16.70;74.40
23475;DHT22;11910;52.086;21.066;2023-03-14T09:16:18;17.00;73.50
23475;DHT22;11910;52.086;21.066;2023-03-14T09:18:44;17.10;72.50
23475;DHT22;11910;52.086;21.066;2023-03-14T09:21:09;17.20;71.70
23475;DHT22;11910;52.086;21.066;2023-03-14T09:23:35;17.40;70.70
23475;DHT22;11910;52.086;21.066;2023-03-14T09:26:01;17.40;70.10
23475;DHT22;11910;52.086;21.066;2023-03-14T09:28:27;17.50;69.80
23475;DHT22;11910;52.086;21.066;2023-03-14T09:30:53;17.70;69.90
23475;DHT22;11910;52.086;21.066;2023-03-14T09:33:20;17.90;69.80
23475;DHT22;11910;52.086;21.066;2023-03-14T09:35:46;18.00;68.20
23475;DHT22;11910;52.086;21.066;2023-03-14T09:38:11;18.20;67.70
23475;DHT22;11910;52.086;21.066;2023-03-14T09:40:38;18.50;66.50
23475;DHT22;11910;52.086;21.066;2023-03-14T09:43:05;18.70;65.50
23475;DHT22;11910;52.086;21.066;2023-03-14T09:45:36;18.70;65.90
23475;DHT22;11910;52.086;21.066;2023-03-14T09:48:04;18.80;64.80
23475;DHT22;11910;52.086;21.066;2023-03-14T09:50:36;18.90;64.60
23475;DHT22;11910;52.086;21.066;2023-03-14T09:53:12;18.90;65.00
23475;DHT22;11910;52.086;21.066;2023-03-14T09:55:39;19.10;64.00
23475;DHT22;11910;52.086;21.066;2023-03-14T09:58:13;19.20;63.70
23475;DHT22;11910;52.086;21.066;2023-03-14T10:00:39;19.00;63.00
23475;DHT22;11910;52.086;21.066;2023-03-14T10:05:36;20.00;61.10
23475;DHT22;11910;52.086;21.066;2023-03-14T10:08:02;20.60;61.40
23475;DHT22;11910;52.086;21.066;2023-03-14T10:10:28;20.70;59.40
23475;DHT22;11910;52.086;21.066;2023-03-14T10:13:24;20.20;58.70
23475;DHT22;11910;52.086;21.066;2023-03-14T10:15:54;19.70;58.90
23475;DHT22;11910;52.086;21.066;2023-03-14T10:18:22;19.30;60.20
23475;DHT22;11910;52.086;21.066;2023-03-14T10:20:52;19.40;61.00
23475;DHT22;11910;52.086;21.066;2023-03-14T10:23:29;19.90;59.90
23475;DHT22;11910;52.086;21.066;2023-03-14T10:26:04;19.70;59.20
23475;DHT22;11910;52.086;21.066;2023-03-14T10:28:40;19.40;59.90
23475;DHT22;11910;52.086;21.066;2023-03-14T10:31:07;19.30;60.10
23475;DHT22;11910;52.086;21.066;2023-03-14T10:33:35;19.30;59.80
23475;DHT22;11910;52.086;21.066;2023-03-14T10:36:17;19.60;59.10
23475;DHT22;11910;52.086;21.066;2023-03-14T10:38:45;20.30;58.00
23475;DHT22;11910;52.086;21.066;2023-03-14T10:41:25;20.10;58.00
23475;DHT22;11910;52.086;21.066;2023-03-14T10:43:54;19.70;58.80
23475;DHT22;11910;52.086;21.066;2023-03-14T10:46:24;19.20;59.70
23475;DHT22;11910;52.086;21.066;2023-03-14T10:48:51;18.60;60.20
23475;DHT22;11910;52.086;21.066;2023-03-14T10:51:29;18.00;61.10
23475;DHT22;11910;52.086;21.066;2023-03-14T10:54:04;17.40;62.90
23475;DHT22;11910;52.086;21.066;2023-03-14T10:56:37;17.10;64.00
23475;DHT22;11910;52.086;21.066;2023-03-14T10:59:06;16.90;65.00
23475;DHT22;11910;52.086;21.066;2023-03-14T11:02:01;16.90;64.60
23475;DHT22;11910;52.086;21.066;2023-03-14T11:05:02;16.80;65.00
23475;DHT22;11910;52.086;21.066;2023-03-14T11:07:40;16.60;65.50
23475;DHT22;11910;52.086;21.066;2023-03-14T11:10:35;16.50;67.00
23475;DHT22;11910;52.086;21.066;2023-03-14T11:21:35;16.70;66.80
23475;DHT22;11910;52.086;21.066;2023-03-14T11:29:38;17.90;64.80
23475;DHT22;11910;52.086;21.066;2023-03-14T11:32:57;17.90;64.60
23475;DHT22;11910;52.086;21.066;2023-03-14T11:35:20;18.60;64.10
23475;DHT22;11910;52.086;21.066;2023-03-14T11:41:02;18.30;62.60
23475;DHT22;11910;52.086;21.066;2023-03-14T11:43:38;18.30;63.30
23475;DHT22;11910;52.086;21.066;2023-03-14T11:46:21;17.90;63.80
23475;DHT22;11910;52.086;21.066;2023-03-14T11:49:23;17.40;64.50
23475;DHT22;11910;52.086;21.066;2023-03-14T11:51:56;16.80;65.50
23475;DHT22;11910;52.086;21.066;2023-03-14T11:57:09;16.30;67.90
23475;DHT22;11910;52.086;21.066;2023-03-14T12:05:22;16.10;69.20
23475;DHT22;11910;52.086;21.066;2023-03-14T12:10:51;16.00;68.70
23475;DHT22;11910;52.086;21.066;2023-03-14T12:13:18;16.60;68.00
23475;DHT22;11910;52.086;21.066;2023-03-14T12:15:54;18.10;65.90
23475;DHT22;11910;52.086;21.066;2023-03-14T12:18:38;18.10;64.60
23475;DHT22;11910;52.086;21.066;2023-03-14T12:21:06;18.00;64.20
23475;DHT22;11910;52.086;21.066;2023-03-14T12:23:48;17.80;64.80
23475;DHT22;11910;52.086;21.066;2023-03-14T12:26:25;17.50;65.90
23475;DHT22;11910;52.086;21.066;2023-03-14T12:39:22;16.30;69.50
23475;DHT22;11910;52.086;21.066;2023-03-14T12:42:10;16.10;69.50
23475;DHT22;11910;52.086;21.066;2023-03-14T12:44:44;15.80;70.10
23475;DHT22;11910;52.086;21.066;2023-03-14T12:50:14;15.60;71.20
23475;DHT22;11910;52.086;21.066;2023-03-14T12:58:24;15.20;73.00
23475;DHT22;11910;52.086;21.066;2023-03-14T13:00:59;15.10;73.10
23475;DHT22;11910;52.086;21.066;2023-03-14T13:03:36;15.00;73.50
23475;DHT22;11910;52.086;21.066;2023-03-14T13:06:04;14.90;74.40
23475;DHT22;11910;52.086;21.066;2023-03-14T13:08:37;14.80;74.70
23475;DHT22;11910;52.086;21.066;2023-03-14T13:11:23;14.70;79.20
23475;DHT22;11910;52.086;21.066;2023-03-14T13:13:58;14.50;79.50
23475;DHT22;11910;52.086;21.066;2023-03-14T13:16:25;14.30;81.20
23475;DHT22;11910;52.086;21.066;2023-03-14T13:19:01;14.20;81.70
23475;DHT22;11910;52.086;21.066;2023-03-14T13:21:35;14.20;83.80
23475;DHT22;11910;52.086;21.066;2023-03-14T13:24:27;14.10;85.00
23475;DHT22;11910;52.086;21.066;2023-03-14T13:26:55;14.00;86.90
23475;DHT22;11910;52.086;21.066;2023-03-14T13:29:23;13.70;89.40
23475;DHT22;11910;52.086;21.066;2023-03-14T13:31:52;13.60;89.00
23475;DHT22;11910;52.086;21.066;2023-03-14T13:34:18;13.50;89.10
23475;DHT22;11910;52.086;21.066;2023-03-14T13:36:54;13.40;89.80
23475;DHT22;11910;52.086;21.066;2023-03-14T13:39:23;13.30;90.00
23475;DHT22;11910;52.086;21.066;2023-03-14T13:41:52;13.20;90.30
23475;DHT22;11910;52.086;21.066;2023-03-14T13:44:30;13.10;90.30
23475;DHT22;11910;52.086;21.066;2023-03-14T13:47:01;13.00;90.90
23475;DHT22;11910;52.086;21.066;2023-03-14T13:49:40;12.90;90.80
23475;DHT22;11910;52.086;21.066;2023-03-14T13:52:32;12.90;91.10
23475;DHT22;11910;52.086;21.066;2023-03-14T13:55:01;12.70;92.40
23475;DHT22;11910;52.086;21.066;2023-03-14T13:57:43;12.50;93.20
23475;DHT22;11910;52.086;21.066;2023-03-14T14:00:21;12.50;92.70
23475;DHT22;11910;52.086;21.066;2023-03-14T14:02:49;12.50;92.70
23475;DHT22;11910;52.086;21.066;2023-03-14T14:07:57;12.30;93.50
23475;DHT22;11910;52.086;21.066;2023-03-14T14:10:26;12.30;93.80
23475;DHT22;11910;52.086;21.066;2023-03-14T14:13:03;12.10;95.80
23475;DHT22;11910;52.086;21.066;2023-03-14T14:15:40;12.00;95.40
23475;DHT22;11910;52.086;21.066;2023-03-14T14:18:11;11.90;96.00
23475;DHT22;11910;52.086;21.066;2023-03-14T14:20:44;11.90;96.20
23475;DHT22;11910;52.086;21.066;2023-03-14T14:23:21;11.80;97.90
23475;DHT22;11910;52.086;21.066;2023-03-14T14:25:51;11.70;99.20
23475;DHT22;11910;52.086;21.066;2023-03-14T14:28:29;11.70;99.30
23475;DHT22;11910;52.086;21.066;2023-03-14T14:31:18;11.60;98.80
23475;DHT22;11910;52.086;21.066;2023-03-14T14:33:57;11.50;99.30
23475;DHT22;11910;52.086;21.066;2023-03-14T14:36:36;11.50;99.90
23475;DHT22;11910;52.086;21.066;2023-03-14T14:39:18;11.50;99.90
23475;DHT22;11910;52.086;21.066;2023-03-14T14:41:48;11.50;99.90
23475;DHT22;11910;52.086;21.066;2023-03-14T14:44:17;11.40;99.90
23475;DHT22;11910;52.086;21.066;2023-03-14T14:46:44;11.40;99.90
23475;DHT22;11910;52.086;21.066;2023-03-14T14:49:13;11.40;99.90
23475;DHT22;11910;52.086;21.066;2023-03-14T14:52:02;11.40;99.90
23475;DHT22;11910;52.086;21.066;2023-03-14T14:54:39;11.40;99.90
23475;DHT22;11910;52.086;21.066;2023-03-14T14:57:17;11.40;99.90
23475;DHT22;11910;52.086;21.066;2023-03-14T14:59:48;11.40;99.90
23475;DHT22;11910;52.086;21.066;2023-03-14T15:04:56;11.40;99.90
23475;DHT22;11910;52.086;21.066;2023-03-14T15:07:21;11.40;99.90
23475;DHT22;11910;52.086;21.066;2023-03-14T15:09:47;11.30;99.90
23475;DHT22;11910;52.086;21.066;2023-03-14T15:12:13;11.40;99.90
23475;DHT22;11910;52.086;21.066;2023-03-14T15:14:38;11.30;99.90
23475;DHT22;11910;52.086;21.066;2023-03-14T15:17:08;11.30;99.90
23475;DHT22;11910;52.086;21.066;2023-03-14T15:19:34;11.30;99.90
23475;DHT22;11910;52.086;21.066;2023-03-14T15:22:00;11.30;99.90
23475;DHT22;11910;52.086;21.066;2023-03-14T15:24:25;11.30;99.90
23475;DHT22;11910;52.086;21.066;2023-03-14T15:26:54;11.30;99.90
23475;DHT22;11910;52.086;21.066;2023-03-14T15:29:19;11.30;99.90
23475;DHT22;11910;52.086;21.066;2023-03-14T15:31:45;11.30;99.90
23475;DHT22;11910;52.086;21.066;2023-03-14T15:34:11;11.30;99.90
23475;DHT22;11910;52.086;21.066;2023-03-14T15:36:37;11.30;99.90
23475;DHT22;11910;52.086;21.066;2023-03-14T15:39:05;11.20;99.90
23475;DHT22;11910;52.086;21.066;2023-03-14T15:41:31;11.20;99.90
23475;DHT22;11910;52.086;21.066;2023-03-14T15:43:59;11.20;99.90
23475;DHT22;11910;52.086;21.066;2023-03-14T15:46:25;11.20;99.90
23475;DHT22;11910;52.086;21.066;2023-03-14T15:48:51;11.20;99.90
23475;DHT22;11910;52.086;21.066;2023-03-14T15:51:18;11.10;99.90
23475;DHT22;11910;52.086;21.066;2023-03-14T15:53:44;11.10;99.90
23475;DHT22;11910;52.086;21.066;2023-03-14T15:56:15;11.20;99.90
23475;DHT22;11910;52.086;21.066;2023-03-14T15:58:45;11.10;99.90
23475;DHT22;11910;52.086;21.066;2023-03-14T16:01:15;11.10;99.90
23475;DHT22;11910;52.086;21.066;2023-03-14T16:03:44;11.10;99.90
23475;DHT22;11910;52.086;21.066;2023-03-14T16:06:14;11.10;99.90
23475;DHT22;11910;52.086;21.066;2023-03-14T16:08:41;11.10;99.90
23475;DHT22;11910;52.086;21.066;2023-03-14T16:11:10;11.10;99.90
23475;DHT22;11910;52.086;21.066;2023-03-14T16:13:36;11.10;99.90
23475;DHT22;11910;52.086;21.066;2023-03-14T16:16:04;11.10;99.90
23475;DHT22;11910;52.086;21.066;2023-03-14T16:18:33;11.10;99.90
23475;DHT22;11910;52.086;21.066;2023-03-14T16:21:01;11.00;99.90
23475;DHT22;11910;52.086;21.066;2023-03-14T16:23:28;11.10;99.90
23475;DHT22;11910;52.086;21.066;2023-03-14T16:25:55;11.00;99.90
23475;DHT22;11910;52.086;21.066;2023-03-14T16:28:21;11.00;99.90
23475;DHT22;11910;52.086;21.066;2023-03-14T16:30:49;11.00;99.90
23475;DHT22;11910;52.086;21.066;2023-03-14T16:33:15;10.90;99.90
23475;DHT22;11910;52.086;21.066;2023-03-14T16:35:52;10.90;99.90
23475;DHT22;11910;52.086;21.066;2023-03-14T16:38:17;10.90;99.90
23475;DHT22;11910;52.086;21.066;2023-03-14T16:40:43;10.90;99.90
23475;DHT22;11910;52.086;21.066;2023-03-14T16:43:09;10.90;99.90
23475;DHT22;11910;52.086;21.066;2023-03-14T16:45:36;10.90;99.90
23475;DHT22;11910;52.086;21.066;2023-03-14T16:48:02;10.90;99.90